Linda Fortune — 3FOW6 — position and weather

sailwx.info

Track history (hours):
 
Tides and Currents Weather Stations Pressure Air Temp Water Temp Dewpoint Dewpoint Depression Visibility Wind Speed Wind Dir Waves Ship Positions

Linda Fortune

Last reported at 2018-Jan-12 14:49 UTC. Time now 2018-Feb-18 01:41 UTC.
Position N 01°19' E 103°18'.
Warning: this ship's position is 36 days out of date.

Length 281 m; draft 17.4 m.

Type: Cargo ship. MMSI: 352793000.

Date/timePositionNaut miles runAvg speedWind from/ knotsBaromVisibWave heightAir tempDewpointWater temp
2018-Jan-12 14:49N 01°19' E 103°18'3 9.5
2018-Jan-12 14:28N 01°17' E 103°21'4 9.3
2018-Jan-12 14:00N 01°15' E 103°25'4 8.9
2018-Jan-12 13:30N 01°13' E 103°29'3 5.9
2018-Jan-12 13:00N 01°13' E 103°32'5 9.4
2018-Jan-12 12:30N 01°12' E 103°36'5 9.6
2018-Jan-12 12:00N 01°10' E 103°41'5 8.9
2018-Jan-12 11:29N 01°09' E 103°45'511.4
2018-Jan-12 11:00N 01°11' E 103°50'510.8
2018-Jan-12 10:30N 01°14' E 103°55'510.2
2018-Jan-12 10:00N 01°16' E 103°60'3 0.5
2018-Jan-12 05:02N 01°17' E 104°02'0 0.1
2018-Jan-12 04:41N 01°17' E 104°02'0 0.0
2018-Jan-12 04:17N 01°17' E 104°02'0 0.1
2018-Jan-12 03:59N 01°17' E 104°02'0 0.1
2018-Jan-12 01:56N 01°17' E 104°01'0 0.1
2018-Jan-11 23:59N 01°17' E 104°01'0 0.1
2018-Jan-11 22:47N 01°17' E 104°01'0 0.1
2018-Jan-11 22:29N 01°17' E 104°01'0 0.0
2018-Jan-11 21:53N 01°17' E 104°01'0 0.0
2018-Jan-11 21:23N 01°17' E 104°01'0 0.0
2018-Jan-11 20:50N 01°17' E 104°01'0 0.0
2018-Jan-11 20:23N 01°17' E 104°01'0 0.0
2018-Jan-11 19:59N 01°17' E 104°01'0 0.1
2018-Jan-11 19:27N 01°17' E 104°01'0 0.1
2018-Jan-11 18:54N 01°17' E 104°01'0 0.4
2018-Jan-11 18:30N 01°17' E 104°01'2 3.9
2018-Jan-11 18:00N 01°17' E 104°03'  
Track history (hours):
 
Tides and Currents Weather Stations Pressure Air Temp Water Temp Dewpoint Dewpoint Depression Visibility Wind Speed Wind Dir Waves Ship Positions

Linda Fortune

Last reported at 2018-Jan-12 14:49 UTC. Time now 2018-Feb-18 01:41 UTC.
Position N 01°19' E 103°18'.
Warning: this ship's position is 36 days out of date.

Length 281 m; draft 17.4 m.

Type: Cargo ship. MMSI: 352793000.

Date/timePositionNaut miles runAvg speedWind from/ knotsBaromVisibWave heightAir tempDewpointWater temp
2018-Jan-12 14:49N 01°19' E 103°18'3 9.5
2018-Jan-12 14:28N 01°17' E 103°21'4 9.3
2018-Jan-12 14:00N 01°15' E 103°25'4 8.9
2018-Jan-12 13:30N 01°13' E 103°29'3 5.9
2018-Jan-12 13:00N 01°13' E 103°32'5 9.4
2018-Jan-12 12:30N 01°12' E 103°36'5 9.6
2018-Jan-12 12:00N 01°10' E 103°41'5 8.9
2018-Jan-12 11:29N 01°09' E 103°45'511.4
2018-Jan-12 11:00N 01°11' E 103°50'510.8
2018-Jan-12 10:30N 01°14' E 103°55'510.2
2018-Jan-12 10:00N 01°16' E 103°60'3 0.5
2018-Jan-12 05:02N 01°17' E 104°02'0 0.1
2018-Jan-12 04:41N 01°17' E 104°02'0 0.0
2018-Jan-12 04:17N 01°17' E 104°02'0 0.1
2018-Jan-12 03:59N 01°17' E 104°02'0 0.1
2018-Jan-12 01:56N 01°17' E 104°01'0 0.1
2018-Jan-11 23:59N 01°17' E 104°01'0 0.1
2018-Jan-11 22:47N 01°17' E 104°01'0 0.1
2018-Jan-11 22:29N 01°17' E 104°01'0 0.0
2018-Jan-11 21:53N 01°17' E 104°01'0 0.0
2018-Jan-11 21:23N 01°17' E 104°01'0 0.0
2018-Jan-11 20:50N 01°17' E 104°01'0 0.0
2018-Jan-11 20:23N 01°17' E 104°01'0 0.0
2018-Jan-11 19:59N 01°17' E 104°01'0 0.1
2018-Jan-11 19:27N 01°17' E 104°01'0 0.1
2018-Jan-11 18:54N 01°17' E 104°01'0 0.4
2018-Jan-11 18:30N 01°17' E 104°01'2 3.9
2018-Jan-11 18:00N 01°17' E 104°03'  

Dump ship's entire track history